Flugplatz Mengeringhausen

Für EDVG sind keine METAR/TAF Berichte vorhanden.
Es werden die Flugwettermeldungen vom Flugplatz Kassel-Calden in 27 km Entfernung angezeigt.

Prognose für EDVK

vom 17.07. um 00:00 UTC

Am 17.07. zwischen 00:00 UTC und 00:00 UTC

Wind 4 kt aus 280°

Sichtweite 10 km oder mehr

keine signifikanten Wettererscheinungen

keine Wolken

TAF EDVK 172000Z 1721/1803 28004KT CAVOK
Impressum